South Shaftsbury, Vermont
Current Conditions -  °F | °C
As of 6:54 AM on Sunday 21 Dec 2014 (Local Time) from KDDH Reporting Station
Haze Haze  
Wind Chill: 25°   Ceiling: 2800
Heat Index: 25°   Visibility: 3mi
Dew Point: 22°   Wind: 0mph
Humidity: 88%   Direction: NA
Pressure: 30.28"   Gusts: NA
Location:  42.9815°N, 73.2071°W
Report Text: KDDH 211154Z AUTO 00000KT 3SM BR SCT022 OVC028 M04/M06 A3028 RMK AO2 SNB33E48 SLP267 P0000 60000 T10391056 11033 21044 51007
Loading
Personal Weather Stations






























Interactive Weather Map New forecast layout! Learn more

10-Day Weather Forecast

Advertisements
Track Severe Weather on mobile